createdAt,value
2023-02-24T04:10:52.577Z,8.83
2023-02-24T04:13:35.260Z,8.82
2023-02-24T04:16:29.518Z,8.65
2023-02-24T04:19:03.922Z,8.66
2023-02-24T04:21:34.199Z,8.61
2023-02-24T04:24:11.423Z,8.53
2023-02-24T04:26:42.797Z,8.57
2023-02-24T04:29:14.067Z,8.49
2023-02-24T04:31:41.090Z,8.51
2023-02-24T04:34:09.434Z,8.58
2023-02-24T04:36:38.504Z,8.50
2023-02-24T04:39:06.469Z,8.47
2023-02-24T04:41:33.003Z,8.29
2023-02-24T04:44:01.624Z,8.40
2023-02-24T04:46:32.258Z,8.38
2023-02-24T04:48:59.758Z,8.41
2023-02-24T04:51:26.282Z,8.55
2023-02-24T04:53:55.356Z,8.55
2023-02-24T04:56:22.395Z,8.60
2023-02-24T04:58:48.949Z,8.43
2023-02-24T05:01:15.423Z,8.30
2023-02-24T05:03:45.100Z,7.95
2023-02-24T05:06:17.122Z,8.03
2023-02-24T05:08:44.293Z,8.18
2023-02-24T05:11:19.632Z,8.03
2023-02-24T05:13:46.932Z,8.01
2023-02-24T05:16:16.601Z,7.78
2023-02-24T05:18:44.592Z,7.94
2023-02-24T05:21:35.267Z,8.10
2023-02-24T05:24:06.801Z,7.91
2023-02-24T05:26:36.174Z,7.77
2023-02-24T05:29:04.788Z,7.76
2023-02-24T05:31:31.688Z,8.06
2023-02-24T05:34:05.203Z,8.06
2023-02-24T05:36:35.077Z,8.16
2023-02-24T05:39:07.292Z,8.25
2023-02-24T05:41:36.107Z,8.19
2023-02-24T05:44:08.484Z,8.20
2023-02-24T05:46:44.553Z,7.72
2023-02-24T05:49:23.858Z,7.90
2023-02-24T05:51:54.762Z,7.97
2023-02-24T05:54:29.051Z,7.95
2023-02-24T05:57:09.183Z,8.07
2023-02-24T05:59:36.016Z,8.10
2023-02-24T06:02:09.478Z,8.07
2023-02-24T06:04:45.524Z,8.05
2023-02-24T06:07:13.893Z,8.06
2023-02-24T06:09:44.801Z,7.79
2023-02-24T06:12:14.418Z,7.92
2023-02-24T06:14:41.997Z,8.04
2023-02-24T06:17:08.901Z,7.88
2023-02-24T06:19:35.412Z,7.79
2023-02-24T06:22:03.478Z,7.85
2023-02-24T06:24:33.066Z,7.90
2023-02-24T06:27:05.851Z,8.07
2023-02-24T06:29:33.109Z,8.11
2023-02-24T06:31:59.902Z,7.87
2023-02-24T06:34:27.717Z,8.12
2023-02-24T06:36:54.373Z,8.07
2023-02-24T06:39:22.279Z,7.97
2023-02-24T06:41:50.146Z,8.06
2023-02-24T06:44:16.617Z,7.83
2023-02-24T06:46:43.235Z,8.04
2023-02-24T06:49:09.897Z,7.74
2023-02-24T06:51:36.881Z,7.85
2023-02-24T06:54:03.494Z,7.75
2023-02-24T06:56:32.230Z,8.05
2023-02-24T06:58:59.133Z,8.29
2023-02-24T07:01:28.671Z,8.56
2023-02-24T07:04:00.624Z,8.58
2023-02-24T07:06:29.369Z,8.44
2023-02-24T07:08:58.381Z,8.48
2023-02-24T07:11:25.810Z,8.56
2023-02-24T07:13:54.438Z,8.75
2023-02-24T07:16:25.156Z,8.82
2023-02-24T07:19:00.888Z,8.57
2023-02-24T07:21:30.111Z,8.12
2023-02-24T07:23:59.078Z,8.13
2023-02-24T07:26:27.649Z,7.95
2023-02-24T07:28:55.036Z,8.17
2023-02-24T07:31:24.217Z,8.44
2023-02-24T07:33:57.231Z,8.64
2023-02-24T07:36:24.445Z,8.46
2023-02-24T07:38:55.072Z,8.34
2023-02-24T07:41:23.232Z,7.63
2023-02-24T07:43:51.831Z,7.77
2023-02-24T07:46:25.966Z,8.06
2023-02-24T07:48:53.428Z,8.26
2023-02-24T07:51:23.485Z,8.56
2023-02-24T07:53:52.970Z,8.78
2023-02-24T07:56:26.806Z,8.48
2023-02-24T07:59:11.011Z,8.55
2023-02-24T08:01:40.734Z,8.42
2023-02-24T08:04:12.314Z,8.06
2023-02-24T08:06:50.209Z,7.83
2023-02-24T08:09:19.365Z,8.07
2023-02-24T08:11:52.124Z,8.38
2023-02-24T08:14:34.757Z,8.82
2023-02-24T08:17:05.397Z,9.03
2023-02-24T08:19:39.309Z,8.59
2023-02-24T08:22:20.990Z,8.74
2023-02-24T08:25:00.651Z,8.56
2023-02-24T08:27:32.055Z,8.74
2023-02-24T08:30:00.049Z,8.81
2023-02-24T08:32:50.222Z,9.18
2023-02-24T08:35:20.292Z,9.15
2023-02-24T08:37:50.082Z,8.69
2023-02-24T08:40:31.401Z,8.36
2023-02-24T08:43:21.972Z,8.79
2023-02-24T08:45:51.961Z,9.20
2023-02-24T08:48:36.149Z,8.85
2023-02-24T08:51:10.865Z,9.21
2023-02-24T08:53:40.563Z,9.39
2023-02-24T08:56:11.464Z,9.17
2023-02-24T08:58:47.420Z,9.07
2023-02-24T09:01:19.145Z,9.41
2023-02-24T09:03:47.676Z,9.04
2023-02-24T09:06:26.488Z,9.46
2023-02-24T09:09:14.150Z,9.79
2023-02-24T09:11:44.084Z,9.66
2023-02-24T09:14:32.227Z,10.01
2023-02-24T09:17:02.324Z,9.23
2023-02-24T09:19:40.589Z,9.83
2023-02-24T09:22:21.211Z,10.30
2023-02-24T09:24:51.098Z,10.15
2023-02-24T09:27:17.696Z,9.79
2023-02-24T09:29:49.319Z,10.27
2023-02-24T09:32:16.289Z,10.88
2023-02-24T09:34:46.090Z,10.88
2023-02-24T09:37:24.962Z,11.29
2023-02-24T09:39:57.813Z,11.40
2023-02-24T09:42:28.618Z,10.73
2023-02-24T09:45:00.757Z,10.79
2023-02-24T09:47:55.143Z,10.97
2023-02-24T09:50:46.877Z,11.45
2023-02-24T09:53:17.225Z,10.45
2023-02-24T09:56:05.521Z,11.40
2023-02-24T09:59:11.967Z,10.99
2023-02-24T10:01:54.938Z,10.12
2023-02-24T10:04:49.269Z,10.89
2023-02-24T10:07:20.064Z,11.36
2023-02-24T10:10:19.342Z,10.73
2023-02-24T10:12:58.250Z,11.93
2023-02-24T10:15:50.151Z,12.58
2023-02-24T10:18:31.325Z,13.49
2023-02-24T10:21:15.472Z,13.11
2023-02-24T10:24:07.950Z,14.29
2023-02-24T10:27:00.799Z,14.47
2023-02-24T10:29:38.912Z,14.95
2023-02-24T10:32:33.769Z,14.02
2023-02-24T10:35:03.605Z,12.18
2023-02-24T10:37:30.199Z,12.82
2023-02-24T10:40:09.670Z,12.37
2023-02-24T10:42:45.574Z,12.21
2023-02-24T10:45:26.900Z,12.60
2023-02-24T10:47:59.055Z,12.14
2023-02-24T10:50:34.930Z,12.76
2023-02-24T10:53:28.668Z,12.31
2023-02-24T10:56:24.438Z,11.90
2023-02-24T10:59:29.976Z,11.62
2023-02-24T11:02:06.867Z,11.83
2023-02-24T11:05:09.723Z,12.37
2023-02-24T11:08:08.399Z,12.15
2023-02-24T11:10:55.570Z,10.97
2023-02-24T11:13:40.591Z,12.54
2023-02-24T11:16:27.635Z,13.57
2023-02-24T11:18:55.594Z,13.56
2023-02-24T11:21:28.451Z,12.46
2023-02-24T11:24:02.686Z,14.19
2023-02-24T11:26:40.499Z,13.06
2023-02-24T11:29:41.280Z,11.81
2023-02-24T11:32:30.230Z,11.51
2023-02-24T11:35:26.440Z,11.65
2023-02-24T11:38:05.860Z,11.77
2023-02-24T11:40:42.001Z,12.54
2023-02-24T11:43:20.824Z,11.97
2023-02-24T11:45:53.362Z,11.73
2023-02-24T11:48:25.176Z,11.68
2023-02-24T11:51:27.594Z,11.14
2023-02-24T11:54:01.963Z,11.77
2023-02-24T11:56:36.237Z,11.94
2023-02-24T11:59:21.292Z,13.22
2023-02-24T12:01:57.476Z,13.29
2023-02-24T12:04:35.400Z,13.11
2023-02-24T12:07:10.454Z,12.54
2023-02-24T12:09:46.308Z,11.99
2023-02-24T12:12:41.665Z,11.79
2023-02-24T12:15:25.414Z,10.97
2023-02-24T12:18:01.867Z,11.23
2023-02-24T12:20:41.534Z,11.71
2023-02-24T12:23:31.232Z,14.07
2023-02-24T12:26:15.628Z,15.22
2023-02-24T12:29:19.875Z,15.13
2023-02-24T12:32:00.452Z,14.67
2023-02-24T12:34:43.453Z,14.68
2023-02-24T12:37:31.666Z,13.50
2023-02-24T12:40:01.328Z,12.36
2023-02-24T12:42:55.662Z,11.26
2023-02-24T12:45:39.208Z,10.80
2023-02-24T12:48:14.197Z,11.76
2023-02-24T12:50:52.906Z,12.09
2023-02-24T12:53:27.954Z,10.90
2023-02-24T12:56:22.711Z,12.02
2023-02-24T12:58:52.592Z,11.31
2023-02-24T13:01:48.550Z,10.98
2023-02-24T13:04:27.272Z,11.98
2023-02-24T13:07:02.633Z,12.72
2023-02-24T13:09:46.185Z,12.09
2023-02-24T13:12:16.953Z,10.90
2023-02-24T13:14:44.841Z,10.99
2023-02-24T13:17:11.305Z,11.34
2023-02-24T13:19:43.751Z,11.77
2023-02-24T13:22:13.119Z,11.59
2023-02-24T13:24:44.312Z,11.71
2023-02-24T13:27:14.653Z,11.64
2023-02-24T13:29:52.873Z,11.33
2023-02-24T13:32:41.424Z,11.23
2023-02-24T13:35:17.913Z,11.13
2023-02-24T13:37:46.604Z,10.73
2023-02-24T13:40:19.073Z,10.56
2023-02-24T13:42:58.090Z,11.18
2023-02-24T13:45:29.273Z,11.70
2023-02-24T13:48:30.076Z,12.50
2023-02-24T13:51:23.145Z,13.13
2023-02-24T13:53:59.192Z,13.26
2023-02-24T13:56:54.138Z,13.38
2023-02-24T13:59:43.593Z,13.44
2023-02-24T14:02:26.880Z,14.47
2023-02-24T14:04:56.161Z,13.70
2023-02-24T14:07:37.220Z,13.09
2023-02-24T14:10:25.230Z,12.55
2023-02-24T14:13:02.877Z,13.66
2023-02-24T14:15:29.898Z,13.36
2023-02-24T14:18:02.296Z,13.28
2023-02-24T14:20:33.972Z,12.49
2023-02-24T14:23:01.505Z,12.09
2023-02-24T14:25:34.494Z,11.36
2023-02-24T14:28:01.025Z,11.34
2023-02-24T14:30:39.272Z,11.45
2023-02-24T14:33:17.992Z,11.05
2023-02-24T14:35:48.706Z,11.71
2023-02-24T14:38:39.327Z,12.07
2023-02-24T14:41:15.003Z,11.95
2023-02-24T14:43:41.832Z,12.09
2023-02-24T14:46:09.191Z,12.20
2023-02-24T14:48:36.360Z,11.84
2023-02-24T14:51:10.899Z,11.41
2023-02-24T14:53:58.181Z,10.72
2023-02-24T14:56:30.511Z,11.21
2023-02-24T14:59:24.144Z,11.15
2023-02-24T15:01:56.650Z,11.62
2023-02-24T15:04:43.517Z,11.40
2023-02-24T15:07:23.899Z,11.06
2023-02-24T15:09:52.076Z,10.70
2023-02-24T15:12:30.112Z,11.05
2023-02-24T15:15:01.901Z,11.54
2023-02-24T15:17:38.819Z,10.66
2023-02-24T15:20:24.860Z,11.00
2023-02-24T15:22:51.639Z,10.36
2023-02-24T15:25:42.012Z,10.50
2023-02-24T15:28:24.887Z,11.04
2023-02-24T15:31:18.552Z,10.93
2023-02-24T15:33:54.182Z,11.02
2023-02-24T15:36:25.138Z,10.80
2023-02-24T15:39:04.059Z,10.55
2023-02-24T15:41:42.699Z,10.30
2023-02-24T15:44:51.541Z,10.16
2023-02-24T15:47:26.963Z,10.03
2023-02-24T15:49:53.771Z,10.10
2023-02-24T15:52:27.605Z,9.78
2023-02-24T15:54:59.276Z,10.09
2023-02-24T15:57:26.066Z,10.07
2023-02-24T15:59:52.610Z,9.99
2023-02-24T16:02:21.434Z,9.94
2023-02-24T16:04:49.556Z,9.85
2023-02-24T16:07:21.958Z,9.89
2023-02-24T16:09:50.470Z,9.66
2023-02-24T16:12:21.942Z,9.68
2023-02-24T16:14:50.447Z,9.67
2023-02-24T16:17:30.462Z,9.68
2023-02-24T16:19:56.982Z,9.71
2023-02-24T16:22:24.457Z,9.66
2023-02-24T16:24:51.080Z,9.70
2023-02-24T16:27:20.438Z,9.64
2023-02-24T16:29:49.531Z,9.54
2023-02-24T16:32:16.689Z,9.64
2023-02-24T16:34:43.452Z,9.58
2023-02-24T16:37:26.377Z,9.45
2023-02-24T16:39:53.568Z,9.23
2023-02-24T16:42:21.977Z,9.42
2023-02-24T16:44:49.375Z,9.47
2023-02-24T16:47:24.186Z,9.36
2023-02-24T16:49:55.285Z,9.32
2023-02-24T16:52:23.359Z,9.33
2023-02-24T16:54:50.070Z,9.32
2023-02-24T16:57:16.719Z,9.18
2023-02-24T16:59:43.877Z,9.28
2023-02-24T17:02:19.929Z,9.18
2023-02-24T17:04:46.687Z,9.16
2023-02-24T17:07:14.577Z,9.09
2023-02-24T17:09:41.088Z,9.07
2023-02-24T17:12:11.010Z,8.98
2023-02-24T17:14:37.539Z,8.83
2023-02-24T17:17:04.090Z,8.89
2023-02-24T17:19:30.589Z,8.96
2023-02-24T17:21:57.118Z,8.93
2023-02-24T17:24:24.904Z,8.90
2023-02-24T17:26:52.291Z,8.86
2023-02-24T17:29:19.123Z,8.69
2023-02-24T17:31:45.917Z,8.64
2023-02-24T17:34:12.574Z,8.73
2023-02-24T17:36:39.027Z,8.82
2023-02-24T17:39:05.534Z,8.68
2023-02-24T17:41:31.981Z,8.56
2023-02-24T17:43:58.498Z,8.43
2023-02-24T17:46:25.301Z,8.36
2023-02-24T17:48:52.059Z,8.40
2023-02-24T17:51:19.822Z,8.46
2023-02-24T17:53:46.457Z,8.46
2023-02-24T17:56:13.021Z,8.44
2023-02-24T17:58:40.361Z,8.58
2023-02-24T18:01:07.390Z,8.62
2023-02-24T18:03:35.816Z,8.65
2023-02-24T18:06:21.614Z,8.45
2023-02-24T18:09:08.712Z,8.52
2023-02-24T18:11:55.513Z,8.40
2023-02-24T18:14:42.312Z,8.41
2023-02-24T18:17:29.579Z,8.34
2023-02-24T18:20:16.345Z,8.32
2023-02-24T18:23:03.190Z,8.37
2023-02-24T18:25:50.017Z,8.38
2023-02-24T18:28:37.288Z,8.31
2023-02-24T18:31:26.302Z,8.40
2023-02-24T18:34:13.187Z,8.45
2023-02-24T18:37:00.791Z,8.55
2023-02-24T18:39:47.562Z,8.49
2023-02-24T18:42:34.458Z,8.42
2023-02-24T18:45:22.489Z,8.36
2023-02-24T18:48:09.472Z,8.33
2023-02-24T18:50:57.875Z,8.22
2023-02-24T18:53:45.357Z,8.21
2023-02-24T18:56:34.724Z,8.10
2023-02-24T18:59:21.530Z,8.01
2023-02-24T19:02:10.420Z,7.92
2023-02-24T19:04:57.406Z,7.89
2023-02-24T19:07:44.209Z,7.85
2023-02-24T19:10:30.996Z,7.66
2023-02-24T19:13:18.025Z,7.76
2023-02-24T19:16:05.677Z,7.71
2023-02-24T19:18:55.004Z,7.67
2023-02-24T19:21:45.214Z,7.54
2023-02-24T19:24:33.079Z,7.55
2023-02-24T19:27:19.987Z,7.68
2023-02-24T19:30:07.627Z,7.57
2023-02-24T19:32:54.593Z,7.26
2023-02-24T19:35:43.012Z,7.34
2023-02-24T19:38:29.889Z,6.98
2023-02-24T19:41:16.841Z,6.77
2023-02-24T19:44:03.841Z,6.78
2023-02-24T19:46:50.726Z,6.48
2023-02-24T19:49:37.770Z,6.53
2023-02-24T19:52:24.637Z,6.04
2023-02-24T19:55:12.442Z,6.11
2023-02-24T19:57:59.286Z,6.19
2023-02-24T20:00:47.957Z,6.32
2023-02-24T20:03:39.451Z,5.99
2023-02-24T20:06:32.918Z,6.00
2023-02-24T20:09:21.349Z,6.09
2023-02-24T20:12:08.983Z,6.02
2023-02-24T20:14:55.882Z,5.49
2023-02-24T20:17:42.687Z,5.51
2023-02-24T20:20:30.377Z,5.40
2023-02-24T20:23:17.221Z,5.21
2023-02-24T20:26:05.117Z,5.30
2023-02-24T20:28:51.969Z,5.17
2023-02-24T20:31:39.866Z,5.21
